createdAt,value
2017-11-05T00:01:58.526Z,90.80
2017-11-05T00:04:26.910Z,91.00
2017-11-05T00:06:54.448Z,90.90
2017-11-05T00:09:22.758Z,91.10
2017-11-05T00:11:50.341Z,91.10
2017-11-05T00:14:17.918Z,91.10
2017-11-05T00:16:45.465Z,91.20
2017-11-05T00:19:13.039Z,91.30
2017-11-05T00:21:40.585Z,91.40
2017-11-05T00:24:08.130Z,91.40
2017-11-05T00:26:35.703Z,91.40
2017-11-05T00:29:03.276Z,91.50
2017-11-05T00:31:30.817Z,91.50
2017-11-05T00:33:58.357Z,91.60
2017-11-05T00:36:25.925Z,91.60
2017-11-05T00:38:53.494Z,91.70
2017-11-05T00:41:21.034Z,91.70
2017-11-05T00:43:54.361Z,91.80
2017-11-05T00:46:21.904Z,91.90
2017-11-05T00:48:49.440Z,91.90
2017-11-05T00:51:17.020Z,91.90
2017-11-05T00:53:44.604Z,92.00
2017-11-05T00:56:12.153Z,92.10
2017-11-05T00:58:40.441Z,92.10
2017-11-05T01:01:07.969Z,92.10
2017-11-05T01:03:35.506Z,92.20
2017-11-05T01:06:03.844Z,92.20
2017-11-05T01:08:31.389Z,92.20
2017-11-05T01:10:59.381Z,92.20
2017-11-05T01:13:26.921Z,92.30
2017-11-05T01:15:54.453Z,92.30
2017-11-05T01:18:22.024Z,92.30
2017-11-05T01:20:49.601Z,92.30
2017-11-05T01:23:17.138Z,92.40
2017-11-05T01:25:44.729Z,92.50
2017-11-05T01:28:12.269Z,92.50
2017-11-05T01:30:39.810Z,92.50
2017-11-05T01:33:07.385Z,92.60
2017-11-05T01:35:34.917Z,92.60
2017-11-05T01:38:02.519Z,92.60
2017-11-05T01:40:30.060Z,92.70
2017-11-05T01:42:57.597Z,92.70
2017-11-05T01:45:26.165Z,92.70
2017-11-05T01:47:54.461Z,92.80
2017-11-05T01:50:22.000Z,92.70
2017-11-05T01:52:50.642Z,92.80
2017-11-05T01:55:18.179Z,92.80
2017-11-05T01:57:45.760Z,92.80
2017-11-05T02:00:13.453Z,92.90
2017-11-05T02:02:41.024Z,92.90
2017-11-05T02:05:09.333Z,93.00
2017-11-05T02:07:37.057Z,93.00
2017-11-05T02:10:04.618Z,93.00
2017-11-05T02:12:35.834Z,93.00
2017-11-05T02:15:03.380Z,93.00
2017-11-05T02:17:30.921Z,93.00
2017-11-05T02:19:58.509Z,93.00
2017-11-05T02:22:26.036Z,93.00
2017-11-05T02:24:53.585Z,93.10
2017-11-05T02:27:22.085Z,93.10
2017-11-05T02:29:49.617Z,93.10
2017-11-05T02:32:17.965Z,93.20
2017-11-05T02:34:45.500Z,93.20
2017-11-05T02:37:13.116Z,93.20
2017-11-05T02:39:41.420Z,93.20
2017-11-05T02:42:08.989Z,93.20
2017-11-05T02:44:36.526Z,93.10
2017-11-05T02:47:04.976Z,93.10
2017-11-05T02:49:32.512Z,93.00
2017-11-05T02:52:00.109Z,92.90
2017-11-05T02:54:28.412Z,92.70
2017-11-05T02:56:55.954Z,92.70
2017-11-05T02:59:24.437Z,92.60
2017-11-05T03:01:52.884Z,92.50
2017-11-05T03:04:20.414Z,92.50
2017-11-05T03:06:48.000Z,92.50
2017-11-05T03:09:15.529Z,92.40
2017-11-05T03:11:43.197Z,92.40
2017-11-05T03:14:10.720Z,92.40
2017-11-05T03:16:39.013Z,92.20
2017-11-05T03:19:06.644Z,92.20
2017-11-05T03:21:34.212Z,92.20
2017-11-05T03:24:02.508Z,92.20
2017-11-05T03:26:30.133Z,92.20
2017-11-05T03:28:57.678Z,92.20
2017-11-05T03:31:25.257Z,92.20
2017-11-05T03:33:52.799Z,92.20
2017-11-05T03:36:20.328Z,92.20
2017-11-05T03:38:48.233Z,92.20
2017-11-05T03:41:15.765Z,92.20
2017-11-05T03:43:43.296Z,92.30
2017-11-05T03:46:10.877Z,92.30
2017-11-05T03:48:38.453Z,92.30
2017-11-05T03:51:05.989Z,92.40
2017-11-05T03:53:33.566Z,92.30
2017-11-05T03:56:01.100Z,92.40
2017-11-05T03:58:28.995Z,92.40
2017-11-05T04:00:56.545Z,92.40
2017-11-05T04:03:24.225Z,92.40
2017-11-05T04:05:51.752Z,92.50
2017-11-05T04:08:19.278Z,92.50
2017-11-05T04:10:47.759Z,92.50
2017-11-05T04:13:16.076Z,92.60
2017-11-05T04:15:43.608Z,92.50
2017-11-05T04:18:13.178Z,92.60
2017-11-05T04:20:40.713Z,92.60
2017-11-05T04:23:08.256Z,92.60
2017-11-05T04:25:36.252Z,92.60
2017-11-05T04:28:03.796Z,92.60
2017-11-05T04:30:31.339Z,92.60
2017-11-05T04:32:59.236Z,92.70
2017-11-05T04:35:26.768Z,92.70
2017-11-05T04:37:54.295Z,92.70
2017-11-05T04:40:21.913Z,92.70
2017-11-05T04:42:49.452Z,92.80
2017-11-05T04:45:17.197Z,92.80
2017-11-05T04:47:45.565Z,92.90
2017-11-05T04:50:13.870Z,93.20
2017-11-05T04:52:41.430Z,92.90
2017-11-05T04:55:09.056Z,92.90
2017-11-05T04:57:36.590Z,92.90
2017-11-05T05:00:04.128Z,92.90
2017-11-05T05:02:31.715Z,92.90
2017-11-05T05:04:59.252Z,92.90
2017-11-05T05:07:26.825Z,93.00
2017-11-05T05:09:54.395Z,92.90
2017-11-05T05:12:21.935Z,92.90
2017-11-05T05:14:50.005Z,92.90
2017-11-05T05:17:17.569Z,92.90
2017-11-05T05:19:45.108Z,92.90
2017-11-05T05:22:12.684Z,92.80
2017-11-05T05:24:40.555Z,92.80
2017-11-05T05:27:08.097Z,92.80
2017-11-05T05:29:35.648Z,92.80
2017-11-05T05:32:03.229Z,92.80
2017-11-05T05:34:34.411Z,92.80
2017-11-05T05:37:02.019Z,92.80
2017-11-05T05:39:29.595Z,92.80
2017-11-05T05:41:57.130Z,92.80
2017-11-05T05:44:24.894Z,92.70
2017-11-05T05:46:52.561Z,92.70
2017-11-05T05:49:21.084Z,92.70
2017-11-05T05:51:48.612Z,92.70
2017-11-05T05:54:17.396Z,92.70
2017-11-05T05:56:44.939Z,92.70
2017-11-05T05:59:13.381Z,92.70
2017-11-05T06:01:40.912Z,92.70
2017-11-05T06:04:12.345Z,92.50
2017-11-05T06:06:39.885Z,92.50
2017-11-05T06:09:08.185Z,92.40
2017-11-05T06:11:35.773Z,92.30
2017-11-05T06:14:03.356Z,92.30
2017-11-05T06:16:30.908Z,92.20
2017-11-05T06:18:58.535Z,92.20
2017-11-05T06:21:26.199Z,92.20
2017-11-05T06:23:53.747Z,92.50
2017-11-05T06:26:21.393Z,92.20
2017-11-05T06:28:49.694Z,92.70
2017-11-05T06:31:17.268Z,92.70
2017-11-05T06:33:44.796Z,92.60
2017-11-05T06:36:12.381Z,92.60
2017-11-05T06:38:40.068Z,92.60
2017-11-05T06:41:07.600Z,92.50
2017-11-05T06:43:35.202Z,92.50
2017-11-05T06:46:04.232Z,92.50
2017-11-05T06:48:31.769Z,92.50
2017-11-05T06:51:00.141Z,92.50
2017-11-05T06:53:27.676Z,92.50
2017-11-05T06:55:55.217Z,92.50
2017-11-05T06:58:22.913Z,92.50
2017-11-05T07:00:50.457Z,92.40
2017-11-05T07:03:17.987Z,92.50
2017-11-05T07:05:45.561Z,92.50
2017-11-05T07:08:13.098Z,92.50
2017-11-05T07:10:40.697Z,92.40
2017-11-05T07:13:08.235Z,92.30
2017-11-05T07:15:35.763Z,92.20
2017-11-05T07:18:04.096Z,92.30
2017-11-05T07:20:31.629Z,92.30
2017-11-05T07:22:59.245Z,92.20
2017-11-05T07:25:26.896Z,92.20
2017-11-05T07:27:54.433Z,92.20
2017-11-05T07:30:22.038Z,92.10
2017-11-05T07:32:51.801Z,92.10
2017-11-05T07:35:19.325Z,92.00
2017-11-05T07:37:50.505Z,92.00
2017-11-05T07:40:18.028Z,92.00
2017-11-05T07:42:45.555Z,92.10
2017-11-05T07:45:13.178Z,92.00
2017-11-05T07:47:42.837Z,92.00
2017-11-05T07:50:11.201Z,92.00
2017-11-05T07:52:39.519Z,92.30
2017-11-05T07:55:08.459Z,91.90
2017-11-05T07:57:35.989Z,91.90
2017-11-05T08:00:03.565Z,92.20
2017-11-05T08:02:31.103Z,91.90
2017-11-05T08:04:59.445Z,91.90
2017-11-05T08:07:27.745Z,91.90
2017-11-05T08:09:55.386Z,91.90
2017-11-05T08:12:23.680Z,91.90
2017-11-05T08:14:51.218Z,91.90
2017-11-05T08:17:19.557Z,91.90
2017-11-05T08:19:47.085Z,91.90
2017-11-05T08:22:14.696Z,91.70
2017-11-05T08:24:42.221Z,91.60
2017-11-05T08:27:09.744Z,91.50
2017-11-05T08:29:38.341Z,91.60
2017-11-05T08:32:05.880Z,91.60
2017-11-05T08:34:34.214Z,91.70
2017-11-05T08:37:01.755Z,91.70
2017-11-05T08:39:29.357Z,91.70
2017-11-05T08:41:56.892Z,91.70
2017-11-05T08:44:24.435Z,91.70
2017-11-05T08:46:52.108Z,91.50
2017-11-05T08:49:19.714Z,91.50
2017-11-05T08:51:48.028Z,91.60
2017-11-05T08:54:15.557Z,91.60
2017-11-05T08:56:43.905Z,91.60
2017-11-05T08:59:11.609Z,91.50
2017-11-05T09:01:39.907Z,91.60
2017-11-05T09:04:07.481Z,91.60
2017-11-05T09:06:35.044Z,91.40
2017-11-05T09:09:03.032Z,91.40
2017-11-05T09:11:30.560Z,91.40
2017-11-05T09:13:58.099Z,91.50
2017-11-05T09:16:25.899Z,91.30
2017-11-05T09:18:53.435Z,91.40
2017-11-05T09:21:20.961Z,91.30
2017-11-05T09:23:48.535Z,91.40
2017-11-05T09:26:16.932Z,91.20
2017-11-05T09:28:44.460Z,91.20
2017-11-05T09:31:13.430Z,91.10
2017-11-05T09:33:41.045Z,91.10
2017-11-05T09:36:08.629Z,91.00
2017-11-05T09:38:36.244Z,91.10
2017-11-05T09:41:04.581Z,91.30
2017-11-05T09:43:32.152Z,91.20
2017-11-05T09:45:59.905Z,91.30
2017-11-05T09:48:27.437Z,91.10
2017-11-05T09:50:54.975Z,91.10
2017-11-05T09:53:23.456Z,91.00
2017-11-05T09:55:51.769Z,91.00
2017-11-05T09:58:19.614Z,91.00
2017-11-05T10:00:47.194Z,91.10
2017-11-05T10:03:14.737Z,91.00
2017-11-05T10:05:42.349Z,91.00
2017-11-05T10:08:09.873Z,91.00
2017-11-05T10:10:37.403Z,90.90
2017-11-05T10:13:06.029Z,90.80
2017-11-05T10:15:33.633Z,91.00
2017-11-05T10:18:01.197Z,90.80
2017-11-05T10:20:29.559Z,90.80
2017-11-05T10:22:57.141Z,90.80
2017-11-05T10:25:25.600Z,90.80
2017-11-05T10:27:53.131Z,91.10
2017-11-05T10:30:20.664Z,90.80
2017-11-05T10:32:48.321Z,90.70
2017-11-05T10:35:15.861Z,90.70
2017-11-05T10:37:44.218Z,90.60
2017-11-05T10:40:11.778Z,90.60
2017-11-05T10:42:40.096Z,90.60
2017-11-05T10:45:07.681Z,90.50
2017-11-05T10:47:35.212Z,90.50
2017-11-05T10:50:03.282Z,90.50
2017-11-05T10:52:30.855Z,90.50
2017-11-05T10:54:58.448Z,90.50
2017-11-05T10:57:25.981Z,90.60
2017-11-05T10:59:57.524Z,90.70
2017-11-05T11:02:25.083Z,90.70
2017-11-05T11:04:52.710Z,90.70
2017-11-05T11:07:20.249Z,90.80
2017-11-05T11:09:47.814Z,90.60
2017-11-05T11:12:15.527Z,90.60
2017-11-05T11:14:43.622Z,90.60
2017-11-05T11:17:11.153Z,90.70
2017-11-05T11:19:39.449Z,90.60
2017-11-05T11:22:07.031Z,90.60
2017-11-05T11:24:34.574Z,90.70
2017-11-05T11:27:02.198Z,90.70
2017-11-05T11:29:30.496Z,90.80
2017-11-05T11:31:58.132Z,90.80
2017-11-05T11:34:26.441Z,91.10
2017-11-05T11:36:54.042Z,90.80
2017-11-05T11:39:21.577Z,90.80
2017-11-05T11:41:49.156Z,90.70
2017-11-05T11:44:16.802Z,90.70
2017-11-05T11:46:44.365Z,90.60
2017-11-05T11:49:11.908Z,90.70
2017-11-05T11:51:39.545Z,90.60
2017-11-05T11:54:07.919Z,90.60
2017-11-05T11:56:36.228Z,90.50
2017-11-05T11:59:03.785Z,90.50
2017-11-05T12:01:31.625Z,90.20
2017-11-05T12:03:59.980Z,90.10
2017-11-05T12:06:27.524Z,90.10
2017-11-05T12:08:55.187Z,90.20
2017-11-05T12:14:18.216Z,90.20
2017-11-05T12:16:45.903Z,90.20
2017-11-05T12:19:15.157Z,90.00
2017-11-05T12:21:43.469Z,90.20
2017-11-05T12:24:11.124Z,90.10
2017-11-05T12:26:38.687Z,90.00
2017-11-05T12:29:06.238Z,89.60
2017-11-05T12:31:33.960Z,89.30
2017-11-05T12:34:01.502Z,89.50
2017-11-05T12:36:29.930Z,89.50
2017-11-05T12:38:58.238Z,88.10
2017-11-05T12:41:25.783Z,89.10
2017-11-05T12:43:53.895Z,87.80
2017-11-05T12:46:21.424Z,87.80
2017-11-05T12:48:48.967Z,87.90
2017-11-05T12:51:16.649Z,88.00
2017-11-05T12:53:44.189Z,87.90
2017-11-05T12:56:11.821Z,87.80
2017-11-05T12:58:44.499Z,87.80
2017-11-05T13:01:12.110Z,88.00
2017-11-05T13:03:39.686Z,87.90
2017-11-05T13:06:07.261Z,87.60
2017-11-05T13:08:34.920Z,87.20
2017-11-05T13:11:02.456Z,87.70
2017-11-05T13:13:30.001Z,86.50
2017-11-05T13:15:57.741Z,86.40
2017-11-05T13:18:25.287Z,86.40
2017-11-05T13:20:52.868Z,86.40
2017-11-05T13:23:21.224Z,86.00
2017-11-05T13:25:48.768Z,86.10
2017-11-05T13:28:16.322Z,85.70
2017-11-05T13:30:44.149Z,85.60
2017-11-05T13:33:11.729Z,85.80
2017-11-05T13:35:39.359Z,86.10
2017-11-05T13:38:07.653Z,86.10
2017-11-05T13:40:35.202Z,86.10
2017-11-05T13:43:02.858Z,86.10
2017-11-05T13:45:31.159Z,85.70
2017-11-05T13:47:58.706Z,85.70
2017-11-05T13:50:26.342Z,85.60
2017-11-05T13:52:54.691Z,85.50
2017-11-05T13:55:22.236Z,85.50
2017-11-05T13:57:49.814Z,85.30
2017-11-05T14:00:17.490Z,85.20
2017-11-05T14:02:45.065Z,85.00
2017-11-05T14:05:13.377Z,85.10
2017-11-05T14:07:41.008Z,84.40
2017-11-05T14:10:09.304Z,83.90
2017-11-05T14:12:36.879Z,83.80
2017-11-05T14:15:04.412Z,83.70
2017-11-05T14:17:32.772Z,83.20
2017-11-05T14:20:00.357Z,83.20
2017-11-05T14:22:28.653Z,83.00
2017-11-05T14:24:56.537Z,83.00
2017-11-05T14:27:24.080Z,82.70
2017-11-05T14:29:51.657Z,82.50
2017-11-05T14:32:19.967Z,82.90
2017-11-05T14:34:48.421Z,83.10
2017-11-05T14:37:15.966Z,83.00
2017-11-05T14:39:43.505Z,83.20
2017-11-05T14:42:11.415Z,84.30
2017-11-05T14:44:39.276Z,84.20
2017-11-05T14:47:06.804Z,83.90
2017-11-05T14:49:34.331Z,83.50
2017-11-05T14:52:01.905Z,83.20
2017-11-05T14:54:30.297Z,83.30
2017-11-05T14:56:57.829Z,83.30
2017-11-05T14:59:25.346Z,82.90
2017-11-05T15:01:52.938Z,81.80
2017-11-05T15:04:20.473Z,81.60
2017-11-05T15:06:48.182Z,81.70
2017-11-05T15:09:16.483Z,81.50
2017-11-05T15:11:44.028Z,81.60
2017-11-05T15:14:12.383Z,81.90
2017-11-05T15:16:45.030Z,81.90
2017-11-05T15:19:12.587Z,82.00
2017-11-05T15:21:40.165Z,82.10
2017-11-05T15:24:07.697Z,82.50
2017-11-05T15:26:35.332Z,82.90
2017-11-05T15:29:03.664Z,83.20
2017-11-05T15:31:31.198Z,83.10
2017-11-05T15:33:58.802Z,83.50
2017-11-05T15:36:26.341Z,83.70
2017-11-05T15:38:53.876Z,83.90
2017-11-05T15:41:21.502Z,83.90
2017-11-05T15:43:49.848Z,84.00
2017-11-05T15:46:17.431Z,84.00
2017-11-05T15:48:45.737Z,84.10
2017-11-05T15:51:13.268Z,84.10
2017-11-05T15:53:40.833Z,84.10
2017-11-05T15:56:09.213Z,84.20
2017-11-05T15:58:37.514Z,84.30
2017-11-05T16:01:05.425Z,85.10
2017-11-05T16:03:33.022Z,84.60
2017-11-05T16:06:01.316Z,84.90
2017-11-05T16:08:28.854Z,85.00
2017-11-05T16:10:57.249Z,85.10
2017-11-05T16:13:24.835Z,85.10
2017-11-05T16:15:52.373Z,85.20
2017-11-05T16:18:19.933Z,85.40
2017-11-05T16:20:47.464Z,85.60
2017-11-05T16:23:15.032Z,86.00
2017-11-05T16:25:43.341Z,86.40
2017-11-05T16:28:11.065Z,86.30
2017-11-05T16:30:38.596Z,86.40
2017-11-05T16:33:06.348Z,86.70
2017-11-05T16:35:33.926Z,86.90
2017-11-05T16:38:01.503Z,87.20
2017-11-05T16:40:29.036Z,87.30
2017-11-05T16:42:56.613Z,87.50
2017-11-05T16:45:24.148Z,87.50
2017-11-05T16:47:51.737Z,87.60
2017-11-05T16:50:19.284Z,87.70
2017-11-05T16:52:46.822Z,87.80
2017-11-05T16:55:14.546Z,87.80
2017-11-05T16:57:42.881Z,88.10
2017-11-05T17:00:10.412Z,88.00
2017-11-05T17:02:43.107Z,88.10
2017-11-05T17:05:10.642Z,88.10
2017-11-05T17:07:38.326Z,88.10
2017-11-05T17:10:05.856Z,88.10
2017-11-05T17:12:33.405Z,88.00
2017-11-05T17:15:01.862Z,88.20
2017-11-05T17:17:29.399Z,88.20
2017-11-05T17:19:57.042Z,88.30
2017-11-05T17:22:24.626Z,88.40
2017-11-05T17:24:52.198Z,88.40
2017-11-05T17:27:19.801Z,88.60
2017-11-05T17:29:52.333Z,88.70
2017-11-05T17:32:19.893Z,88.70
2017-11-05T17:34:47.490Z,88.80
2017-11-05T17:37:15.815Z,89.90
2017-11-05T17:39:43.567Z,89.10
2017-11-05T17:42:11.121Z,89.20
2017-11-05T17:44:38.665Z,89.20
2017-11-05T17:47:06.244Z,89.10
2017-11-05T17:49:33.777Z,89.20
2017-11-05T17:52:01.357Z,89.40
2017-11-05T17:54:29.060Z,89.40
2017-11-05T17:56:56.630Z,89.40
2017-11-05T17:59:24.162Z,89.50
2017-11-05T18:01:51.818Z,89.40
2017-11-05T18:04:21.168Z,89.40
2017-11-05T18:06:49.472Z,89.80
2017-11-05T18:09:17.005Z,89.70
2017-11-05T18:11:44.634Z,89.90
2017-11-05T18:14:12.209Z,90.00
2017-11-05T18:16:39.754Z,90.00
2017-11-05T18:19:07.365Z,90.00
2017-11-05T18:21:35.665Z,90.00
2017-11-05T18:24:03.196Z,90.00
2017-11-05T18:26:30.961Z,90.00
2017-11-05T18:28:59.297Z,90.00
2017-11-05T18:31:26.824Z,90.00
2017-11-05T18:33:54.599Z,89.90
2017-11-05T18:36:22.897Z,90.00
2017-11-05T18:38:50.450Z,89.90
2017-11-05T18:41:18.152Z,89.90
2017-11-05T18:43:46.463Z,90.00
2017-11-05T18:46:14.004Z,90.00
2017-11-05T18:48:41.594Z,90.00
2017-11-05T18:51:09.195Z,90.00
2017-11-05T18:53:36.742Z,90.00
2017-11-05T18:56:04.283Z,90.00
2017-11-05T18:58:32.285Z,90.00
2017-11-05T19:01:00.490Z,89.90
2017-11-05T19:03:28.908Z,89.60
2017-11-05T19:05:57.984Z,89.60
2017-11-05T19:08:25.553Z,89.70
2017-11-05T19:10:53.128Z,89.60
2017-11-05T19:13:20.734Z,89.70
2017-11-05T19:15:49.027Z,89.70
2017-11-05T19:18:16.569Z,89.70
2017-11-05T19:20:48.587Z,89.70
2017-11-05T19:23:16.116Z,89.60
2017-11-05T19:25:43.880Z,89.80
2017-11-05T19:28:11.420Z,89.80
2017-11-05T19:30:39.726Z,90.00
2017-11-05T19:33:07.622Z,90.00
2017-11-05T19:35:35.170Z,89.90
2017-11-05T19:38:02.701Z,90.00
2017-11-05T19:40:30.279Z,90.00
2017-11-05T19:42:57.813Z,90.00
2017-11-05T19:45:25.382Z,90.00
2017-11-05T19:47:53.686Z,90.10
2017-11-05T19:50:21.257Z,90.10
2017-11-05T19:52:48.797Z,90.10
2017-11-05T19:55:16.333Z,90.50
2017-11-05T19:57:44.665Z,90.10
2017-11-05T20:00:12.368Z,90.10
2017-11-05T20:02:40.713Z,90.00
2017-11-05T20:05:08.246Z,90.00
2017-11-05T20:07:37.347Z,90.00
2017-11-05T20:10:04.877Z,90.00
2017-11-05T20:12:32.458Z,90.00
2017-11-05T20:14:59.997Z,90.00
2017-11-05T20:17:27.569Z,90.00
2017-11-05T20:19:55.101Z,90.00
2017-11-05T20:22:22.703Z,90.10
2017-11-05T20:24:51.063Z,90.00
2017-11-05T20:27:18.602Z,90.00
2017-11-05T20:29:46.331Z,90.10
2017-11-05T20:32:13.868Z,90.00
2017-11-05T20:34:41.444Z,90.00
2017-11-05T20:37:08.973Z,90.00
2017-11-05T20:39:36.660Z,90.00
2017-11-05T20:42:04.198Z,90.00
2017-11-05T20:44:31.733Z,90.10
2017-11-05T20:47:00.228Z,90.00
2017-11-05T20:49:32.742Z,90.00
2017-11-05T20:52:00.278Z,90.00
2017-11-05T20:54:27.805Z,89.90
2017-11-05T20:56:56.149Z,90.10
2017-11-05T20:59:23.741Z,90.10
2017-11-05T21:01:53.649Z,90.20
2017-11-05T21:04:21.953Z,90.20
2017-11-05T21:06:49.519Z,90.10
2017-11-05T21:09:17.415Z,90.20
2017-11-05T21:11:44.949Z,90.30
2017-11-05T21:14:12.488Z,90.30
2017-11-05T21:16:40.838Z,90.20
2017-11-05T21:19:08.414Z,90.20
2017-11-05T21:21:36.857Z,90.20
2017-11-05T21:24:04.429Z,90.10
2017-11-05T21:26:32.040Z,90.20
2017-11-05T21:28:59.761Z,90.20
2017-11-05T21:31:27.390Z,90.20
2017-11-05T21:33:54.963Z,90.20
2017-11-05T21:36:22.723Z,90.10
2017-11-05T21:38:50.268Z,90.20
2017-11-05T21:41:17.841Z,90.20
2017-11-05T21:43:45.373Z,90.20
2017-11-05T21:46:16.153Z,90.20
2017-11-05T21:48:43.691Z,90.20
2017-11-05T21:51:11.221Z,90.30
2017-11-05T21:53:39.564Z,90.20
2017-11-05T21:56:07.101Z,90.20
2017-11-05T21:58:34.684Z,90.30
2017-11-05T22:01:02.213Z,90.30
2017-11-05T22:03:29.757Z,90.30
2017-11-05T22:05:58.533Z,90.30
2017-11-05T22:08:26.065Z,90.40
2017-11-05T22:10:53.773Z,90.40
2017-11-05T22:13:21.302Z,90.70
2017-11-05T22:15:49.600Z,90.70
2017-11-05T22:18:17.197Z,90.70
2017-11-05T22:20:44.773Z,90.70
2017-11-05T22:23:12.353Z,90.60
2017-11-05T22:25:40.837Z,90.70
2017-11-05T22:28:09.137Z,90.60
2017-11-05T22:30:36.673Z,90.60
2017-11-05T22:33:05.161Z,90.50
2017-11-05T22:35:33.574Z,90.50
2017-11-05T22:38:01.144Z,90.50
2017-11-05T22:40:28.677Z,90.50
2017-11-05T22:42:56.258Z,90.60
2017-11-05T22:45:23.793Z,90.50
2017-11-05T22:47:55.332Z,90.50
2017-11-05T22:50:23.684Z,90.50
2017-11-05T22:52:51.226Z,90.50
2017-11-05T22:55:18.767Z,90.50
2017-11-05T22:57:46.397Z,90.50
2017-11-05T23:00:13.979Z,90.80
2017-11-05T23:02:41.527Z,90.50
2017-11-05T23:05:09.111Z,90.50
2017-11-05T23:07:36.640Z,90.40
2017-11-05T23:10:07.791Z,90.40
2017-11-05T23:12:36.109Z,90.40
2017-11-05T23:15:05.089Z,90.40
2017-11-05T23:17:32.625Z,90.40
2017-11-05T23:20:00.272Z,90.30
2017-11-05T23:22:28.577Z,90.30
2017-11-05T23:24:56.872Z,90.40
2017-11-05T23:27:24.515Z,90.40
2017-11-05T23:29:52.084Z,90.30
2017-11-05T23:32:19.614Z,90.30
2017-11-05T23:34:47.186Z,90.30
2017-11-05T23:37:14.770Z,90.30
2017-11-05T23:39:42.301Z,90.30
2017-11-05T23:42:11.284Z,90.30
2017-11-05T23:44:40.273Z,90.30
2017-11-05T23:47:08.612Z,90.30
2017-11-05T23:49:36.144Z,90.30
2017-11-05T23:52:03.720Z,90.60
2017-11-05T23:54:31.256Z,90.30
2017-11-05T23:56:59.025Z,90.30
2017-11-05T23:59:26.567Z,90.30
